Time;durP1;ratioP1;P1;durP2;ratioP2;P2;SDS_P1;SDS_P2;PMS_P1;PMS_P2;Temp;Humidity;BMP_temperature;BMP_pressure;BME280_temperature;BME280_humidity;BME280_pressure;Samples;Min_cycle;Max_cycle;Signal;HPM_P1;HPM_P2
2021/03/23 00:00:15;;;;;;;10.33;7.23;;;4.60;99.90;;;;;;4867876;29;20446;-89
2021/03/23 00:02:40;;;;;;;6.67;5.97;;;4.60;99.90;;;;;;4866489;29;20900;-89
2021/03/23 00:05:08;;;;;;;8.93;6.40;;;4.70;99.90;;;;;;4864252;29;23216;-89
2021/03/23 00:07:34;;;;;;;10.00;6.77;;;4.70;99.90;;;;;;4865595;29;20197;-88
2021/03/23 00:09:59;;;;;;;8.27;6.20;;;4.60;99.90;;;;;;4867114;29;20450;-89
2021/03/23 00:12:25;;;;;;;8.40;7.07;;;4.60;99.90;;;;;;4863517;29;20256;-90
2021/03/23 00:14:51;;;;;;;7.73;6.93;;;4.60;99.90;;;;;;4864470;29;20208;-89
2021/03/23 00:17:16;;;;;;;10.30;7.27;;;4.60;99.90;;;;;;4865107;29;20276;-90
2021/03/23 00:19:42;;;;;;;8.20;6.37;;;4.60;99.90;;;;;;4861278;29;20265;-89
2021/03/23 00:22:07;;;;;;;10.30;6.50;;;4.60;99.90;;;;;;4863612;29;20210;-89
2021/03/23 00:24:33;;;;;;;8.03;5.93;;;4.70;99.90;;;;;;4861839;29;20190;-88
2021/03/23 00:26:59;;;;;;;10.20;6.47;;;4.70;99.90;;;;;;4866821;29;20727;-89
2021/03/23 00:29:24;;;;;;;10.80;5.53;;;4.60;99.90;;;;;;4860751;29;21617;-88
2021/03/23 00:31:50;;;;;;;8.23;6.30;;;4.60;99.90;;;;;;4863770;29;20210;-89
2021/03/23 00:34:15;;;;;;;10.60;6.53;;;4.60;99.90;;;;;;4864021;29;20198;-89
2021/03/23 00:36:42;;;;;;;8.27;6.13;;;4.60;99.90;;;;;;4860622;29;20201;-90
2021/03/23 00:39:10;;;;;;;8.60;6.40;;;4.50;99.90;;;;;;4865263;29;20432;-90
2021/03/23 00:41:38;;;;;;;7.53;5.87;;;4.50;99.90;;;;;;4863732;29;20519;-89
2021/03/23 00:44:11;;;;;;;9.17;6.10;;;4.60;99.90;;;;;;4876782;29;20465;-89
2021/03/23 00:46:37;;;;;;;7.83;6.37;;;4.60;99.90;;;;;;4859529;29;20529;-89
2021/03/23 00:49:02;;;;;;;7.20;6.00;;;4.60;99.90;;;;;;4867500;29;20499;-89
2021/03/23 00:51:28;;;;;;;9.40;6.83;;;4.60;99.90;;;;;;4862296;29;20456;-90
2021/03/23 00:53:54;;;;;;;12.80;6.77;;;4.70;99.90;;;;;;4851474;29;20774;-89
2021/03/23 00:56:20;;;;;;;9.63;6.73;;;4.70;99.90;;;;;;4871565;29;20205;-89
2021/03/23 00:58:45;;;;;;;10.03;7.10;;;4.60;99.90;;;;;;4859482;29;20560;-90
2021/03/23 01:01:11;;;;;;;10.37;6.73;;;4.60;99.90;;;;;;4865028;29;20197;-89
2021/03/23 01:03:36;;;;;;;11.17;7.10;;;4.50;99.90;;;;;;4863087;29;20681;-90
2021/03/23 01:06:02;;;;;;;8.57;6.67;;;4.50;99.90;;;;;;4864247;29;20644;-90
2021/03/23 01:08:28;;;;;;;12.27;7.30;;;4.50;99.90;;;;;;4878431;29;20193;-90
2021/03/23 01:10:54;;;;;;;9.93;6.77;;;4.60;99.90;;;;;;4855747;29;20722;-89
2021/03/23 01:13:19;;;;;;;10.67;7.27;;;4.50;99.90;;;;;;4867317;29;20727;-90
2021/03/23 01:15:45;;;;;;;10.90;6.30;;;4.50;99.90;;;;;;4877613;29;20711;-90
2021/03/23 01:18:11;;;;;;;10.73;7.20;;;4.50;99.90;;;;;;4863757;29;20588;-90
2021/03/23 01:20:36;;;;;;;11.40;7.20;;;4.60;99.90;;;;;;4860885;29;20212;-90
2021/03/23 01:23:02;;;;;;;10.67;7.70;;;4.50;99.90;;;;;;4862776;29;20196;-90
2021/03/23 01:25:28;;;;;;;8.50;6.47;;;4.60;99.90;;;;;;4876163;29;20224;-90
2021/03/23 01:27:57;;;;;;;15.33;6.83;;;4.60;99.90;;;;;;4863110;29;20876;-90
2021/03/23 01:30:26;;;;;;;8.73;6.37;;;4.50;99.90;;;;;;4866694;29;20569;-90
2021/03/23 01:32:53;;;;;;;10.80;6.93;;;4.50;99.90;;;;;;4859042;29;20216;-91
2021/03/23 01:35:20;;;;;;;8.70;7.13;;;4.50;99.90;;;;;;4866570;29;20509;-90
2021/03/23 01:37:46;;;;;;;10.10;7.30;;;4.50;99.90;;;;;;4862926;29;20492;-90
2021/03/23 01:40:16;;;;;;;10.90;7.07;;;4.50;99.90;;;;;;4866046;29;20832;-90
2021/03/23 01:42:52;;;;;;;8.77;7.60;;;4.50;99.90;;;;;;4870811;29;20618;-90
2021/03/23 01:45:28;;;;;;;9.00;7.60;;;4.50;99.90;;;;;;4867577;29;20445;-90
2021/03/23 01:47:58;;;;;;;11.20;7.50;;;4.50;99.90;;;;;;4876716;29;20460;-90
2021/03/23 01:50:25;;;;;;;10.40;7.13;;;4.50;99.90;;;;;;4865633;29;20511;-90
2021/03/23 01:53:18;;;;;;;8.37;7.27;;;4.40;99.90;;;;;;4866804;29;20456;-89
2021/03/23 01:55:44;;;;;;;10.03;7.13;;;4.40;99.90;;;;;;4871295;29;20454;-89
2021/03/23 01:58:10;;;;;;;10.17;7.60;;;4.50;99.90;;;;;;4867273;29;21195;-89
2021/03/23 02:00:36;;;;;;;9.57;7.87;;;4.50;99.90;;;;;;4864149;29;20189;-90
2021/03/23 02:03:04;;;;;;;12.17;7.50;;;4.50;99.90;;;;;;4863577;29;20488;-89
2021/03/23 02:05:31;;;;;;;11.87;7.33;;;4.50;99.90;;;;;;4867994;29;20487;-90
2021/03/23 02:08:00;;;;;;;9.23;7.53;;;4.40;99.90;;;;;;4867706;29;20598;-89
2021/03/23 02:10:26;;;;;;;9.33;7.40;;;4.50;99.90;;;;;;4868324;29;20464;-89
2021/03/23 02:12:53;;;;;;;10.47;7.60;;;4.40;99.90;;;;;;4868563;29;20506;-89
2021/03/23 02:15:23;;;;;;;9.90;7.53;;;4.40;99.90;;;;;;4865509;29;20476;-89
2021/03/23 02:18:11;;;;;;;11.27;8.10;;;4.40;99.90;;;;;;4862011;29;20487;-89
2021/03/23 02:20:58;;;;;;;8.73;7.77;;;4.40;99.90;;;;;;4869474;29;20547;-89
2021/03/23 02:23:27;;;;;;;10.97;7.80;;;4.40;99.90;;;;;;4878909;29;20468;-89
2021/03/23 02:25:52;;;;;;;9.10;7.50;;;4.40;99.90;;;;;;4865540;29;20584;-89
2021/03/23 02:28:18;;;;;;;10.63;7.57;;;4.40;99.90;;;;;;4864584;29;20442;-90
2021/03/23 02:30:48;;;;;;;9.63;7.60;;;4.50;99.90;;;;;;4867064;29;20746;-89
2021/03/23 02:33:14;;;;;;;9.83;7.93;;;4.50;99.90;;;;;;4879737;29;20445;-89
2021/03/23 02:35:40;;;;;;;12.10;7.77;;;4.50;99.90;;;;;;4861033;29;20508;-89
2021/03/23 02:38:06;;;;;;;9.23;7.27;;;4.40;99.90;;;;;;4866395;29;20484;-89
2021/03/23 02:40:32;;;;;;;11.70;7.63;;;4.40;99.90;;;;;;4866180;29;20190;-89
2021/03/23 02:42:58;;;;;;;9.70;8.13;;;4.40;99.90;;;;;;4863259;29;20457;-90
2021/03/23 02:45:25;;;;;;;12.00;7.97;;;4.40;99.90;;;;;;4865884;29;22964;-89
2021/03/23 02:47:51;;;;;;;11.00;7.50;;;4.40;99.90;;;;;;4861378;29;20460;-89
2021/03/23 02:50:18;;;;;;;10.33;8.20;;;4.30;99.90;;;;;;4874037;29;20781;-89
2021/03/23 02:52:45;;;;;;;14.23;8.80;;;4.40;99.90;;;;;;4870645;29;20204;-89
2021/03/23 02:55:12;;;;;;;12.90;7.97;;;4.40;99.90;;;;;;4862271;29;20502;-89
2021/03/23 02:57:38;;;;;;;11.87;8.10;;;4.30;99.90;;;;;;4865113;29;21004;-90
2021/03/23 03:00:10;;;;;;;14.80;8.07;;;4.40;99.90;;;;;;4870621;29;20807;-89
2021/03/23 03:02:35;;;;;;;12.20;8.83;;;4.30;99.90;;;;;;4862759;29;20563;-88
2021/03/23 03:05:01;;;;;;;10.50;8.37;;;4.40;99.90;;;;;;4862816;29;20449;-89
2021/03/23 03:07:27;;;;;;;8.67;7.60;;;4.40;99.90;;;;;;4865480;29;20186;-90
2021/03/23 03:09:52;;;;;;;11.97;8.50;;;4.40;99.90;;;;;;4869508;29;21309;-90
2021/03/23 03:12:18;;;;;;;12.67;9.37;;;4.30;99.90;;;;;;4869024;29;20655;-90
2021/03/23 03:14:44;;;;;;;11.73;8.53;;;4.40;99.90;;;;;;4865294;29;20671;-89
2021/03/23 03:17:09;;;;;;;11.67;8.17;;;4.40;99.90;;;;;;4869305;29;20248;-89
2021/03/23 03:19:35;;;;;;;11.90;7.77;;;4.30;99.90;;;;;;4868141;29;20252;-90
2021/03/23 03:22:00;;;;;;;13.43;8.27;;;4.30;99.90;;;;;;4868200;29;20193;-89
2021/03/23 03:24:26;;;;;;;14.60;8.47;;;4.40;99.90;;;;;;4865757;29;20256;-89
2021/03/23 03:26:52;;;;;;;10.87;7.90;;;4.40;99.90;;;;;;4861826;29;20887;-89
2021/03/23 03:29:17;;;;;;;11.83;8.40;;;4.40;99.90;;;;;;4868252;29;20189;-89
2021/03/23 03:31:46;;;;;;;14.10;8.93;;;4.30;99.90;;;;;;4862805;29;20564;-89
2021/03/23 03:34:11;;;;;;;10.70;8.30;;;4.30;99.90;;;;;;4865775;29;20197;-88
2021/03/23 03:36:38;;;;;;;13.60;8.10;;;4.40;99.90;;;;;;4865910;29;20964;-88
2021/03/23 03:39:05;;;;;;;11.60;8.33;;;4.40;99.90;;;;;;4861055;29;20220;-89
2021/03/23 03:41:31;;;;;;;11.00;9.07;;;4.40;99.90;;;;;;4863852;29;20966;-89
2021/03/23 03:43:57;;;;;;;9.93;8.43;;;4.30;99.90;;;;;;4862959;29;20824;-88
2021/03/23 03:46:23;;;;;;;11.63;8.70;;;4.30;99.90;;;;;;4866342;29;20197;-88
2021/03/23 03:48:48;;;;;;;11.67;9.00;;;4.30;99.90;;;;;;4861789;29;20498;-89
2021/03/23 03:51:14;;;;;;;19.73;9.03;;;4.30;99.90;;;;;;4862450;29;21040;-89
2021/03/23 03:53:40;;;;;;;9.90;8.40;;;4.40;99.90;;;;;;4863373;29;20551;-89
2021/03/23 03:56:06;;;;;;;16.10;9.50;;;4.40;99.90;;;;;;4861098;29;20463;-87
2021/03/23 03:58:32;;;;;;;9.87;8.43;;;4.40;99.90;;;;;;4864924;29;20237;-89
2021/03/23 04:00:57;;;;;;;11.07;8.30;;;4.50;99.90;;;;;;4862071;29;20501;-89
2021/03/23 04:03:26;;;;;;;12.70;8.13;;;4.50;99.90;;;;;;4868030;29;20193;-89
2021/03/23 04:05:53;;;;;;;10.33;8.20;;;4.40;99.90;;;;;;4866050;29;20643;-89
2021/03/23 04:08:26;;;;;;;11.40;8.37;;;4.40;99.90;;;;;;4862006;29;22594;-88
2021/03/23 04:11:07;;;;;;;14.10;8.97;;;4.40;99.90;;;;;;4876665;29;20552;-88
2021/03/23 04:13:33;;;;;;;9.73;8.37;;;4.40;99.90;;;;;;4867026;29;20881;-88
2021/03/23 04:15:59;;;;;;;14.20;9.07;;;4.30;99.90;;;;;;4863887;29;20453;-89
2021/03/23 04:18:26;;;;;;;11.83;9.20;;;4.30;99.90;;;;;;4863606;29;21443;-88
2021/03/23 04:20:55;;;;;;;15.47;9.70;;;4.30;99.90;;;;;;4865067;29;20461;-88
2021/03/23 04:23:43;;;;;;;14.93;8.93;;;4.30;99.90;;;;;;4881241;29;20456;-89
2021/03/23 04:26:11;;;;;;;14.20;8.70;;;4.30;99.90;;;;;;4865634;29;20446;-89
2021/03/23 04:28:41;;;;;;;13.73;8.90;;;4.30;99.90;;;;;;4866564;29;20871;-88
2021/03/23 04:31:34;;;;;;;12.60;9.50;;;4.30;99.90;;;;;;4875796;29;20548;-88
2021/03/23 04:34:01;;;;;;;14.23;9.17;;;4.30;99.90;;;;;;4864059;29;20445;-88
2021/03/23 04:36:29;;;;;;;14.33;9.80;;;4.30;99.90;;;;;;4864661;29;20482;-88
2021/03/23 04:38:55;;;;;;;10.97;8.50;;;4.30;99.90;;;;;;4860062;29;20564;-89
2021/03/23 04:41:21;;;;;;;12.93;8.73;;;4.30;99.90;;;;;;4877600;29;20452;-89
2021/03/23 04:43:49;;;;;;;14.23;10.43;;;4.30;99.90;;;;;;4863739;29;20235;-89
2021/03/23 04:46:22;;;;;;;13.03;10.37;;;4.30;99.90;;;;;;4866443;29;20460;-88
2021/03/23 04:48:48;;;;;;;11.67;9.30;;;4.30;99.90;;;;;;4868255;29;20556;-88
2021/03/23 04:51:15;;;;;;;14.20;10.20;;;4.30;99.90;;;;;;4871883;29;20552;-89
2021/03/23 04:53:41;;;;;;;11.80;10.10;;;4.30;99.90;;;;;;4859032;29;20459;-88
2021/03/23 04:56:17;;;;;;;14.33;9.90;;;4.30;99.90;;;;;;4864089;29;20465;-88
2021/03/23 04:58:43;;;;;;;13.13;10.10;;;4.30;99.90;;;;;;4878356;29;20484;-87
2021/03/23 05:01:09;;;;;;;13.33;10.30;;;4.20;99.90;;;;;;4857089;29;20450;-88
2021/03/23 05:03:34;;;;;;;13.20;10.00;;;4.20;99.90;;;;;;4862944;29;20705;-88
2021/03/23 05:06:07;;;;;;;17.00;12.40;;;4.30;99.90;;;;;;4858168;29;20450;-88
2021/03/23 05:08:34;;;;;;;12.77;10.50;;;4.20;99.90;;;;;;4861447;29;21589;-89
2021/03/23 05:11:00;;;;;;;14.93;10.37;;;4.10;99.90;;;;;;4861907;29;20469;-89
2021/03/23 05:13:26;;;;;;;13.13;9.77;;;4.00;99.90;;;;;;4861762;29;20497;-89
2021/03/23 05:15:51;;;;;;;16.43;11.43;;;4.10;99.90;;;;;;4861977;29;20645;-89
2021/03/23 05:18:17;;;;;;;11.30;10.13;;;4.10;99.90;;;;;;4865836;29;20228;-89
2021/03/23 05:20:43;;;;;;;12.57;9.63;;;4.10;99.90;;;;;;4867991;29;20351;-89
2021/03/23 05:23:12;;;;;;;16.10;9.50;;;4.10;99.90;;;;;;4865794;29;20481;-88
2021/03/23 05:25:37;;;;;;;14.03;8.63;;;4.10;99.90;;;;;;4859767;29;20209;-89
2021/03/23 05:28:03;;;;;;;14.40;9.40;;;4.10;99.90;;;;;;4866997;29;20454;-89
2021/03/23 05:30:29;;;;;;;14.03;9.80;;;4.20;99.90;;;;;;4860108;29;20193;-87
2021/03/23 05:32:54;;;;;;;11.97;10.13;;;4.20;99.90;;;;;;4864199;29;20268;-88
2021/03/23 05:35:26;;;;;;;17.50;9.97;;;4.10;99.90;;;;;;4869831;29;20215;-88
2021/03/23 05:37:53;;;;;;;11.20;8.90;;;4.20;99.90;;;;;;4862334;29;20240;-88
2021/03/23 05:40:39;;;;;;;11.47;9.00;;;4.20;99.90;;;;;;4856720;29;20473;-87
2021/03/23 05:43:30;;;;;;;13.40;10.07;;;4.20;99.90;;;;;;4860640;29;20476;-86
2021/03/23 05:46:34;;;;;;;20.47;11.90;;;4.10;99.90;;;;;;4860459;29;20908;-90
2021/03/23 05:49:27;;;;;;;20.60;16.40;;;4.10;99.90;;;;;;4856706;29;20460;-88
2021/03/23 05:52:04;;;;;;;14.50;10.80;;;4.20;99.90;;;;;;4866460;29;20467;-88
2021/03/23 05:54:58;;;;;;;14.87;12.00;;;4.20;99.90;;;;;;4865168;29;20447;-87
2021/03/23 05:57:26;;;;;;;13.80;11.27;;;4.30;99.90;;;;;;4869376;29;21013;-87
2021/03/23 06:00:13;;;;;;;16.30;10.73;;;4.30;99.90;;;;;;4865060;29;20449;-89
2021/03/23 06:02:50;;;;;;;21.43;10.77;;;4.30;99.90;;;;;;4864102;29;20566;-88
2021/03/23 06:05:38;;;;;;;12.27;9.23;;;4.30;99.90;;;;;;4883722;29;20507;-88
2021/03/23 06:08:12;;;;;;;10.60;8.77;;;4.30;99.90;;;;;;4873841;29;20551;-89
2021/03/23 06:10:38;;;;;;;14.17;9.63;;;4.30;99.90;;;;;;4867365;29;20518;-89
2021/03/23 06:13:23;;;;;;;14.23;8.80;;;4.40;99.90;;;;;;4871112;29;20531;-89
2021/03/23 06:16:10;;;;;;;15.77;9.60;;;4.50;99.90;;;;;;4864284;29;20196;-88
2021/03/23 06:18:48;;;;;;;13.13;10.00;;;4.40;99.90;;;;;;4875625;29;20740;-91
2021/03/23 06:21:25;;;;;;;17.43;10.10;;;4.40;99.90;;;;;;4865703;29;20441;-90
2021/03/23 06:24:24;;;;;;;11.77;9.60;;;4.40;99.90;;;;;;4871193;29;20476;-90
2021/03/23 06:27:00;;;;;;;16.23;9.60;;;4.40;99.90;;;;;;4871699;29;20955;-90
2021/03/23 06:30:04;;;;;;;13.10;9.43;;;4.50;99.90;;;;;;4868043;29;20979;-91
2021/03/23 06:32:46;;;;;;;12.43;9.30;;;4.50;99.90;;;;;;4789016;29;20528;-91
2021/03/23 06:35:29;;;;;;;10.93;9.83;;;4.50;99.90;;;;;;4865291;29;20459;-91
2021/03/23 06:37:56;;;;;;;13.43;9.47;;;4.50;99.90;;;;;;4872061;29;20480;-91
2021/03/23 06:40:28;;;;;;;12.70;9.37;;;4.50;99.90;;;;;;4872910;29;20468;-90
2021/03/23 06:42:56;;;;;;;14.43;10.27;;;4.60;99.90;;;;;;4871304;29;20463;-89
2021/03/23 06:45:25;;;;;;;16.43;9.93;;;4.60;99.90;;;;;;4870978;29;20528;-92
2021/03/23 06:47:51;;;;;;;17.93;11.10;;;4.70;99.90;;;;;;4874638;29;20465;-91
2021/03/23 06:50:28;;;;;;;16.53;10.20;;;4.70;99.90;;;;;;4867180;29;20445;-91
2021/03/23 06:53:15;;;;;;;12.43;10.10;;;4.70;99.90;;;;;;4874179;29;20876;-90
2021/03/23 06:55:45;;;;;;;14.73;9.93;;;4.80;99.90;;;;;;4856528;29;20460;-87
2021/03/23 06:58:37;;;;;;;11.80;9.53;;;4.80;99.90;;;;;;4864374;29;20484;-88
2021/03/23 07:01:09;;;;;;;21.03;14.57;;;4.90;99.90;;;;;;4863392;29;20441;-88
2021/03/23 07:03:44;;;;;;;15.40;10.67;;;5.00;99.90;;;;;;4877704;29;21135;-89
2021/03/23 07:06:31;;;;;;;32.27;23.33;;;5.10;99.90;;;;;;4867340;29;20646;-90
2021/03/23 07:09:09;;;;;;;15.90;10.80;;;5.20;99.90;;;;;;4868956;29;20468;-89
2021/03/23 07:12:04;;;;;;;17.43;10.90;;;5.30;99.90;;;;;;4866530;29;20445;-87
2021/03/23 07:14:32;;;;;;;14.90;9.80;;;5.20;99.90;;;;;;4864764;29;20477;-88
2021/03/23 07:17:10;;;;;;;13.83;10.73;;;5.30;99.90;;;;;;4868892;29;20487;-88
2021/03/23 07:19:43;;;;;;;19.37;11.03;;;5.30;99.90;;;;;;4864425;29;20462;-87
2021/03/23 07:22:16;;;;;;;14.03;9.00;;;5.40;99.90;;;;;;4880533;29;20460;-87
2021/03/23 07:24:57;;;;;;;16.57;10.50;;;5.50;99.90;;;;;;4863653;29;20499;-88
2021/03/23 07:27:26;;;;;;;15.60;11.00;;;5.40;99.90;;;;;;4865819;29;20886;-89
2021/03/23 07:30:31;;;;;;;14.93;11.07;;;5.40;99.90;;;;;;4861817;29;20453;-88
2021/03/23 07:33:02;;;;;;;14.63;10.90;;;5.50;99.90;;;;;;4866872;29;21738;-88
2021/03/23 07:35:38;;;;;;;14.50;10.50;;;5.60;99.90;;;;;;4868997;29;20441;-87
2021/03/23 07:38:26;;;;;;;19.30;11.80;;;5.70;99.90;;;;;;4867742;29;20535;-88
2021/03/23 07:40:54;;;;;;;15.37;10.63;;;5.70;99.90;;;;;;4867809;29;20806;-90
2021/03/23 07:43:51;;;;;;;14.03;10.20;;;5.80;99.90;;;;;;4865056;29;20493;-89
2021/03/23 07:46:25;;;;;;;16.93;10.90;;;5.90;99.90;;;;;;4877718;29;20484;-88
2021/03/23 07:49:09;;;;;;;20.13;12.17;;;6.00;99.90;;;;;;4867861;29;20469;-88
2021/03/23 07:51:47;;;;;;;18.30;12.10;;;6.00;99.90;;;;;;4864342;29;20494;-89
2021/03/23 07:54:38;;;;;;;19.03;11.53;;;6.10;99.90;;;;;;4868619;29;20548;-88
2021/03/23 07:57:32;;;;;;;17.67;11.73;;;6.20;99.90;;;;;;4868114;29;20967;-88
2021/03/23 08:00:38;;;;;;;16.17;11.60;;;6.30;99.90;;;;;;4865711;29;20804;-89
2021/03/23 08:03:38;;;;;;;15.70;11.10;;;6.30;99.90;;;;;;4867340;29;20460;-89
2021/03/23 08:06:31;;;;;;;21.77;12.70;;;6.50;99.90;;;;;;4865270;29;20461;-87
2021/03/23 08:09:18;;;;;;;18.20;11.70;;;6.70;99.90;;;;;;4864960;29;20553;-88
2021/03/23 08:11:54;;;;;;;16.53;12.23;;;6.80;99.90;;;;;;4872761;29;20453;-87
2021/03/23 08:14:32;;;;;;;20.13;11.80;;;6.80;99.90;;;;;;4865363;29;20525;-86
2021/03/23 08:18:02;;;;;;;21.20;12.53;;;6.60;99.90;;;;;;4862457;29;20455;-86
2021/03/23 08:21:17;;;;;;;20.77;14.07;;;6.50;99.90;;;;;;4821105;29;20566;-85
2021/03/23 08:24:04;;;;;;;23.87;14.40;;;6.50;99.90;;;;;;4829110;29;20532;-86
2021/03/23 08:26:36;;;;;;;20.23;13.70;;;6.50;99.90;;;;;;4881155;29;20475;-87
2021/03/23 08:29:12;;;;;;;23.00;14.20;;;6.60;99.90;;;;;;4873178;29;20474;-87
2021/03/23 08:31:53;;;;;;;21.57;14.47;;;6.90;99.90;;;;;;4862170;29;20466;-87
2021/03/23 08:34:56;;;;;;;22.47;15.13;;;7.20;99.90;;;;;;4866203;29;20467;-86
2021/03/23 08:38:00;;;;;;;22.90;12.97;;;7.30;99.90;;;;;;4871954;29;21199;-86
2021/03/23 08:40:52;;;;;;;21.57;13.63;;;7.60;99.90;;;;;;4853451;29;20519;-85
2021/03/23 08:43:31;;;;;;;24.13;15.57;;;7.90;99.90;;;;;;4865387;29;21021;-85
2021/03/23 08:45:58;;;;;;;22.70;14.40;;;8.00;99.90;;;;;;4868319;29;20467;-88
2021/03/23 08:48:46;;;;;;;26.93;14.07;;;7.80;99.90;;;;;;4873185;29;20465;-87
2021/03/23 08:51:15;;;;;;;21.07;13.40;;;8.00;99.90;;;;;;4865744;29;20518;-87
2021/03/23 08:53:44;;;;;;;21.80;14.73;;;8.10;99.90;;;;;;4871780;29;20457;-86
2021/03/23 08:56:11;;;;;;;23.57;15.77;;;7.60;99.90;;;;;;4862401;29;20476;-83
2021/03/23 08:58:37;;;;;;;26.17;16.80;;;7.40;99.90;;;;;;4864677;29;20475;-84
2021/03/23 09:01:04;;;;;;;24.70;15.80;;;7.40;99.90;;;;;;4866033;29;20650;-83
2021/03/23 09:03:44;;;;;;;24.00;15.07;;;7.70;99.90;;;;;;4869227;29;20839;-85
2021/03/23 09:06:12;;;;;;;24.57;15.73;;;7.70;99.90;;;;;;4860253;29;20507;-84
2021/03/23 09:09:34;;;;;;;22.90;15.20;;;7.60;99.90;;;;;;4865358;29;20445;-83
2021/03/23 09:12:15;;;;;;;23.80;16.37;;;7.90;99.90;;;;;;4776532;29;20480;-84
2021/03/23 09:15:09;;;;;;;23.83;15.43;;;8.40;99.90;;;;;;4858582;29;20473;-83
2021/03/23 09:18:05;;;;;;;25.97;15.80;;;8.60;99.90;;;;;;4862870;29;20939;-84
2021/03/23 09:20:34;;;;;;;28.70;16.27;;;8.80;99.90;;;;;;4866679;29;20465;-83
2021/03/23 09:23:19;;;;;;;26.70;16.20;;;9.10;99.90;;;;;;4861016;29;20460;-85
2021/03/23 09:26:05;;;;;;;25.77;17.00;;;8.90;99.90;;;;;;4865217;29;20939;-84
2021/03/23 09:28:38;;;;;;;26.43;17.10;;;8.50;99.90;;;;;;4862187;29;20539;-85
2021/03/23 09:31:29;;;;;;;28.40;16.50;;;8.50;99.90;;;;;;4867402;29;20449;-84
2021/03/23 09:33:57;;;;;;;26.30;17.57;;;7.90;99.90;;;;;;4861807;29;20481;-82
2021/03/23 09:36:38;;;;;;;26.20;15.03;;;8.50;99.90;;;;;;4865532;29;20463;-83
2021/03/23 09:39:16;;;;;;;26.37;16.90;;;8.90;99.90;;;;;;4867968;29;20488;-84
2021/03/23 09:41:50;;;;;;;23.70;15.80;;;9.30;99.90;;;;;;4879365;29;21015;-83
2021/03/23 09:44:20;;;;;;;24.60;16.90;;;9.60;99.90;;;;;;4862257;29;20810;-83
2021/03/23 09:46:54;;;;;;;22.20;15.10;;;10.00;99.90;;;;;;4862839;29;20470;-84
2021/03/23 09:49:43;;;;;;;23.53;14.17;;;10.20;99.90;;;;;;4862961;29;20443;-82
2021/03/23 09:52:17;;;;;;;20.50;14.23;;;10.10;99.80;;;;;;4863008;29;20487;-83
2021/03/23 09:54:46;;;;;;;20.40;13.77;;;9.90;99.90;;;;;;4879376;29;20813;-83
2021/03/23 09:57:21;;;;;;;20.00;14.73;;;9.60;99.90;;;;;;4858206;29;20470;-84
2021/03/23 09:59:52;;;;;;;15.00;11.73;;;10.00;99.90;;;;;;4866132;29;20868;-83
2021/03/23 10:02:30;;;;;;;16.37;12.07;;;10.30;99.90;;;;;;4863264;29;20490;-83
2021/03/23 10:05:15;;;;;;;16.97;12.97;;;10.60;99.50;;;;;;4865044;29;20465;-82
2021/03/23 10:07:43;;;;;;;17.67;12.73;;;10.50;98.90;;;;;;4876945;29;20813;-83
2021/03/23 10:10:27;;;;;;;18.93;13.03;;;10.20;98.50;;;;;;4865832;29;20459;-83
2021/03/23 10:12:58;;;;;;;15.57;12.20;;;9.80;99.60;;;;;;4864126;29;20460;-84
2021/03/23 10:15:35;;;;;;;13.03;9.47;;;9.90;99.80;;;;;;4877287;29;21237;-83
2021/03/23 10:18:22;;;;;;;11.67;8.20;;;9.80;98.10;;;;;;4868128;29;20541;-83
2021/03/23 10:21:10;;;;;;;12.43;8.83;;;9.70;97.50;;;;;;4865584;29;20458;-83
2021/03/23 10:23:55;;;;;;;10.53;7.80;;;9.40;98.90;;;;;;4867867;29;20808;-83
2021/03/23 10:26:22;;;;;;;12.03;8.70;;;9.30;99.10;;;;;;4866095;29;20459;-83
2021/03/23 10:28:50;;;;;;;11.60;8.30;;;9.40;97.50;;;;;;4864602;29;20823;-83
2021/03/23 10:31:39;;;;;;;11.17;8.57;;;9.40;98.20;;;;;;4863429;29;20472;-83
2021/03/23 10:34:14;;;;;;;10.70;9.60;;;9.60;98.20;;;;;;4861432;29;20439;-83
2021/03/23 10:36:50;;;;;;;11.73;9.13;;;9.50;98.10;;;;;;4884269;29;20458;-83
2021/03/23 10:39:42;;;;;;;12.70;9.70;;;9.60;97.90;;;;;;4882964;29;20502;-83
2021/03/23 10:42:22;;;;;;;11.87;9.37;;;9.90;97.60;;;;;;4878818;29;20485;-82
2021/03/23 10:44:49;;;;;;;11.77;9.50;;;9.60;97.40;;;;;;4863907;29;20471;-83
2021/03/23 10:47:37;;;;;;;12.70;8.03;;;9.70;97.90;;;;;;4867824;29;20542;-82
2021/03/23 10:50:18;;;;;;;9.20;7.83;;;9.60;96.30;;;;;;4878025;29;20450;-83
2021/03/23 10:52:44;;;;;;;16.00;9.50;;;9.50;96.10;;;;;;4867595;29;20461;-83
2021/03/23 10:55:31;;;;;;;11.20;8.33;;;9.80;96.40;;;;;;4862134;29;20443;-83
2021/03/23 10:58:16;;;;;;;12.90;9.60;;;9.80;95.70;;;;;;4865397;29;20486;-83
2021/03/23 11:00:42;;;;;;;12.20;8.70;;;9.30;96.50;;;;;;4864566;29;20478;-83
2021/03/23 11:03:21;;;;;;;12.93;8.40;;;8.80;97.50;;;;;;4868011;29;20463;-83
2021/03/23 11:05:49;;;;;;;11.80;9.03;;;8.90;97.40;;;;;;4867212;29;20802;-82
2021/03/23 11:08:16;;;;;;;12.93;8.17;;;9.20;96.60;;;;;;4866053;29;20454;-85
2021/03/23 11:10:43;;;;;;;11.80;8.37;;;9.60;95.80;;;;;;4864809;29;20462;-82
2021/03/23 11:13:14;;;;;;;12.57;8.80;;;9.60;95.80;;;;;;4857740;29;20475;-83
2021/03/23 11:15:44;;;;;;;11.83;8.13;;;9.60;94.70;;;;;;4859404;29;20445;-82
2021/03/23 11:18:21;;;;;;;12.47;8.20;;;9.50;95.00;;;;;;4863608;29;21623;-82
2021/03/23 11:20:48;;;;;;;16.17;9.13;;;9.30;95.10;;;;;;4861396;29;20906;-83
2021/03/23 11:23:29;;;;;;;11.40;8.90;;;9.20;96.50;;;;;;4859327;29;20497;-83
2021/03/23 11:25:55;;;;;;;12.80;8.20;;;9.10;95.90;;;;;;4865190;29;20465;-83
2021/03/23 11:28:20;;;;;;;11.60;8.60;;;9.10;96.10;;;;;;4863231;29;20468;-83
2021/03/23 11:30:46;;;;;;;11.20;8.13;;;9.00;96.70;;;;;;4864049;29;20256;-83
2021/03/23 11:33:13;;;;;;;12.70;8.70;;;9.00;96.30;;;;;;4862004;29;20224;-83
2021/03/23 11:35:44;;;;;;;13.93;8.53;;;9.00;97.50;;;;;;4862765;29;21199;-83
2021/03/23 11:38:10;;;;;;;13.03;8.13;;;9.00;97.00;;;;;;4865745;29;20990;-83
2021/03/23 11:40:35;;;;;;;12.70;9.47;;;9.00;96.70;;;;;;4863088;29;20448;-83
2021/03/23 11:43:01;;;;;;;18.40;9.33;;;8.90;97.50;;;;;;4865120;29;20672;-82
2021/03/23 11:45:38;;;;;;;13.40;8.23;;;8.70;98.00;;;;;;4861488;29;20195;-83
2021/03/23 11:48:09;;;;;;;11.87;8.30;;;8.40;97.80;;;;;;4860276;29;20481;-83
2021/03/23 11:50:35;;;;;;;11.93;7.80;;;8.30;98.30;;;;;;4860246;29;20951;-83
2021/03/23 11:53:01;;;;;;;13.17;8.13;;;8.20;98.70;;;;;;4864839;29;20473;-83
2021/03/23 11:55:44;;;;;;;15.77;9.90;;;8.40;98.70;;;;;;4870406;29;20493;-83
2021/03/23 11:58:10;;;;;;;13.20;8.90;;;8.50;99.60;;;;;;4861842;29;20495;-83
2021/03/23 12:00:36;;;;;;;14.07;8.90;;;8.50;98.60;;;;;;4859156;29;21438;-83
2021/03/23 12:03:06;;;;;;;11.70;9.43;;;8.60;99.10;;;;;;4875746;29;20554;-83
2021/03/23 12:05:46;;;;;;;16.20;9.43;;;8.70;98.00;;;;;;4865295;29;20556;-83
2021/03/23 12:08:51;;;;;;;13.03;9.03;;;8.70;97.40;;;;;;4862018;29;20838;-82
2021/03/23 12:11:25;;;;;;;11.60;8.47;;;8.70;97.40;;;;;;4845598;29;20461;-85
2021/03/23 12:14:16;;;;;;;10.73;7.97;;;8.80;97.60;;;;;;4860066;29;20461;-85
2021/03/23 12:16:48;;;;;;;12.63;9.50;;;8.70;98.10;;;;;;4863491;29;20442;-84
2021/03/23 12:19:15;;;;;;;11.87;7.97;;;8.60;99.90;;;;;;4869981;29;20488;-84
2021/03/23 12:21:45;;;;;;;14.27;8.00;;;8.40;99.80;;;;;;4862209;29;20445;-84
2021/03/23 12:24:14;;;;;;;12.20;9.03;;;8.40;99.20;;;;;;4864338;29;20441;-83
2021/03/23 12:26:40;;;;;;;12.93;8.90;;;8.40;98.40;;;;;;4863872;29;20438;-83
2021/03/23 12:29:06;;;;;;;13.03;10.20;;;8.40;98.40;;;;;;4868458;29;20975;-84
2021/03/23 12:31:31;;;;;;;13.07;9.33;;;8.50;99.90;;;;;;4874588;29;20529;-84
2021/03/23 12:33:57;;;;;;;15.60;9.80;;;8.40;99.90;;;;;;4861616;29;20288;-84
2021/03/23 12:36:23;;;;;;;13.33;9.53;;;8.50;99.80;;;;;;4862786;29;20205;-85
2021/03/23 12:38:51;;;;;;;14.40;10.23;;;8.70;99.90;;;;;;4861311;29;20229;-85
2021/03/23 12:41:28;;;;;;;11.83;9.53;;;8.90;99.40;;;;;;4858898;29;20503;-85
2021/03/23 12:43:54;;;;;;;15.50;9.90;;;9.00;98.50;;;;;;4868138;29;20497;-85
2021/03/23 12:46:20;;;;;;;11.83;9.43;;;9.20;98.10;;;;;;4864198;29;20537;-84
2021/03/23 12:48:46;;;;;;;12.40;9.10;;;9.20;97.30;;;;;;4863419;29;20224;-85
2021/03/23 12:51:46;;;;;;;10.40;8.97;;;9.20;97.40;;;;;;4856175;29;20928;-85
2021/03/23 12:54:16;;;;;;;14.47;8.70;;;9.00;96.90;;;;;;4848897;29;20496;-84
2021/03/23 12:56:43;;;;;;;13.60;8.63;;;8.90;96.90;;;;;;4856141;29;20506;-82
2021/03/23 12:59:16;;;;;;;12.30;8.07;;;8.80;96.70;;;;;;4861153;29;20481;-83
2021/03/23 13:01:42;;;;;;;13.53;8.70;;;8.60;97.00;;;;;;4861960;29;20457;-85
2021/03/23 13:04:11;;;;;;;10.90;8.37;;;8.40;97.70;;;;;;4857488;29;20464;-86
2021/03/23 13:06:37;;;;;;;13.70;8.20;;;8.20;99.30;;;;;;4858379;29;20196;-86
2021/03/23 13:09:11;;;;;;;10.43;7.93;;;8.30;98.60;;;;;;4861502;29;20453;-87
2021/03/23 13:11:47;;;;;;;11.20;8.27;;;8.40;97.60;;;;;;4856666;29;20199;-87
2021/03/23 13:14:28;;;;;;;12.33;8.30;;;8.40;98.00;;;;;;4859659;29;20535;-85
2021/03/23 13:16:55;;;;;;;10.73;8.10;;;8.30;97.90;;;;;;4851000;29;20503;-86